Habi Airport


Codes: AYHB/HBD
Name: Habi Airport
City: Habi
Country: Papua New Guinea
Elevation: 993 ft.

Photos at Habi Airport


   Photos courtesy of SpottingLog. You can add your own sightings and photos by signing up for a free trial today.



No photos found.

Weather at Habi Airport


Time (UTC)DescriptionTempratureWindCloud coverageVisibilityPressureHumidity
25-Jun-2024 15:00Overcast Clouds23°C2 mph, NE98%10000m1012hPa98%
25-Jun-2024 18:00Light Rain22°C2 mph, N99%10000m1011hPa99%
25-Jun-2024 21:00Overcast Clouds22°C2 mph, NE95%10000m1011hPa99%
26-Jun-2024 00:00Overcast Clouds25°C2 mph, SW95%10000m1012hPa86%
26-Jun-2024 03:00Light Rain30°C4 mph, SW71%10000m1009hPa63%
26-Jun-2024 06:00Light Rain27°C0 mph, S81%5259m1007hPa90%
26-Jun-2024 09:00Light Rain23°C2 mph, NE94%10000m1009hPa97%
26-Jun-2024 12:00Light Rain22°C2 mph, E98%10000m1010hPa98%
26-Jun-2024 15:00Overcast Clouds22°C2 mph, NE100%10000m1009hPa98%
26-Jun-2024 18:00Overcast Clouds21°C2 mph, NE98%10000m1010hPa98%
26-Jun-2024 21:00Overcast Clouds21°C2 mph, N92%10000m1011hPa98%
27-Jun-2024 00:00Overcast Clouds28°C2 mph, W95%10000m1011hPa75%
27-Jun-2024 03:00Light Rain31°C4 mph, W73%10000m1008hPa60%
27-Jun-2024 06:00Light Rain27°C2 mph, SW86%9736m1006hPa83%
27-Jun-2024 09:00Light Rain24°C2 mph, E79%10000m1008hPa97%
27-Jun-2024 12:00Light Rain23°C2 mph, E83%10000m1010hPa98%
27-Jun-2024 15:00Moderate Rain23°C2 mph, E98%4576m1009hPa99%
27-Jun-2024 18:00Moderate Rain22°C2 mph, NE99%8401m1009hPa99%
27-Jun-2024 21:00Heavy Intensity Rain23°C2 mph, N100%4367m1011hPa100%
28-Jun-2024 00:00Moderate Rain22°C2 mph, NW100%10000m1012hPa99%
28-Jun-2024 03:00Light Rain22°C0 mph, NW100%10000m1011hPa99%
28-Jun-2024 06:00Light Rain27°C2 mph, W100%10000m1009hPa73%
28-Jun-2024 09:00Moderate Rain23°C0 mph, SE100%10000m1010hPa99%
28-Jun-2024 12:00Light Rain23°C0 mph, NE100%10000m1012hPa99%
28-Jun-2024 15:00Overcast Clouds22°C0 mph, NE100%10000m1011hPa100%
28-Jun-2024 18:00Overcast Clouds22°C0 mph, NE100%10000m1010hPa99%
28-Jun-2024 21:00Overcast Clouds21°C0 mph, N98%10000m1012hPa99%
29-Jun-2024 00:00Overcast Clouds26°C2 mph, SW96%10000m1012hPa84%
29-Jun-2024 03:00Light Rain29°C2 mph, SW72%10000m1009hPa63%
29-Jun-2024 06:00Light Rain27°C0 mph, SE86%10000m1007hPa83%
29-Jun-2024 09:00Moderate Rain23°C0 mph, SE100%7639m1009hPa97%
29-Jun-2024 12:00Moderate Rain22°C2 mph, E100%8191m1011hPa99%
29-Jun-2024 15:00Moderate Rain21°C0 mph, NE97%4743m1010hPa99%
29-Jun-2024 18:00Light Rain21°C0 mph, NE98%10000m1010hPa99%
29-Jun-2024 21:00Overcast Clouds21°C2 mph, NE98%10000m1011hPa99%
30-Jun-2024 00:00Overcast Clouds25°C2 mph, NW99%10000m1012hPa85%
30-Jun-2024 03:00Light Rain27°C2 mph, W73%10000m1009hPa80%
30-Jun-2024 06:00Light Rain26°C2 mph, NW80%10000m1008hPa91%
30-Jun-2024 09:00Light Rain23°C0 mph, NE61%10000m1009hPa98%
30-Jun-2024 12:00Light Rain22°C2 mph, E78%10000m1011hPa99%